METAR Data
IDs: Format: Raw Decoded Include TAF

Data at: 1351 UTC 26 Feb 2021

LIPO 261320Z AUTO 24005KT 200V270 9000 NCD 19/03 Q1026